Time;durP1;ratioP1;P1;durP2;ratioP2;P2;SDS_P1;SDS_P2;PMS_P1;PMS_P2;Temp;Humidity;BMP_temperature;BMP_pressure;BME280_temperature;BME280_humidity;BME280_pressure;Samples;Min_cycle;Max_cycle;Signal;HPM_P1;HPM_P2
2022/12/09 05:33:23;;;;;;;13.00;4.65;;;;;;;0.05;100.00;100823.90;1831988;76;950625;-80
2022/12/09 05:36:10;;;;;;;14.38;5.42;;;;;;;0.03;100.00;100817.92;1843288;76;21081;-78
2022/12/09 05:38:54;;;;;;;8.23;3.70;;;;;;;0.03;100.00;100819.27;1799773;78;21021;-78
2022/12/09 05:41:39;;;;;;;9.33;4.35;;;;;;;0.03;100.00;100817.41;1785959;79;22302;-78
2022/12/09 05:44:24;;;;;;;14.03;5.65;;;;;;;0.04;100.00;100816.36;1774912;79;21052;-78
2022/12/09 05:47:08;;;;;;;15.78;6.45;;;;;;;0.03;100.00;100805.83;1762545;79;20990;-78
2022/12/09 05:49:53;;;;;;;15.83;6.55;;;;;;;0.03;100.00;100803.97;1794865;78;21595;-78
2022/12/09 05:52:38;;;;;;;16.97;7.45;;;;;;;0.03;100.00;100811.20;1794745;78;21015;-79
2022/12/09 05:55:22;;;;;;;21.02;9.03;;;;;;;0.01;100.00;100807.88;1788184;79;21429;-79
2022/12/09 05:58:07;;;;;;;19.45;8.05;;;;;;;0.00;100.00;100804.38;1728274;81;21022;-79
2022/12/09 06:00:55;;;;;;;16.62;8.48;;;;;;;-0.01;100.00;100811.59;1782551;79;20999;-79
2022/12/09 06:03:37;;;;;;;23.35;8.48;;;;;;;-0.01;100.00;100811.59;1722011;79;21042;-79
2022/12/09 06:06:25;;;;;;;34.75;10.63;;;;;;;0.01;100.00;100801.17;1718161;82;21081;-78
2022/12/09 06:09:10;;;;;;;27.52;8.53;;;;;;;0.01;100.00;100801.17;1754064;80;21029;-79
2022/12/09 06:11:54;;;;;;;26.82;11.08;;;;;;;-0.01;100.00;100804.87;1777472;79;20994;-78
2022/12/09 06:14:39;;;;;;;27.32;9.95;;;;;;;0.04;100.00;100810.16;1772875;78;21041;-78
2022/12/09 06:17:23;;;;;;;31.05;9.25;;;;;;;0.10;100.00;100815.57;1794850;77;21012;-78
2022/12/09 06:20:08;;;;;;;30.88;9.18;;;;;;;0.12;100.00;100823.41;1807923;77;21034;-78
2022/12/09 06:22:53;;;;;;;28.90;8.48;;;;;;;0.17;100.00;100826.32;1777781;78;21448;-78
2022/12/09 06:25:42;;;;;;;31.97;10.50;;;;;;;0.18;100.00;100823.97;1815696;77;21127;-78
2022/12/09 06:28:26;;;;;;;21.93;8.68;;;;;;;0.23;100.00;100821.50;1797179;77;21175;-78
2022/12/09 06:31:11;;;;;;;23.07;7.45;;;;;;;0.25;100.00;100812.72;1793423;77;21060;-78
2022/12/09 06:33:57;;;;;;;20.68;8.00;;;;;;;0.26;100.00;100810.34;1797170;78;21448;-78
2022/12/09 06:36:41;;;;;;;23.77;8.18;;;;;;;0.25;100.00;100807.34;1799289;77;20983;-78
2022/12/09 06:39:26;;;;;;;22.50;8.33;;;;;;;0.28;100.00;100806.94;1770806;77;20998;-77
2022/12/09 06:42:10;;;;;;;22.98;8.93;;;;;;;0.30;100.00;100804.88;1791803;77;21006;-78
2022/12/09 06:44:55;;;;;;;18.73;7.58;;;;;;;0.30;100.00;100809.43;1812163;77;20990;-78
2022/12/09 06:47:39;;;;;;;19.52;7.28;;;;;;;0.30;100.00;100807.56;1729464;81;20973;-77
2022/12/09 06:50:25;;;;;;;17.77;8.40;;;;;;;0.33;100.00;100812.53;1728872;81;21080;-81
2022/12/09 06:53:09;;;;;;;15.38;6.67;;;;;;;0.37;100.00;100808.41;1722522;80;21463;-81
2022/12/09 06:55:54;;;;;;;11.03;4.83;;;;;;;0.37;100.00;100791.42;1767656;79;21081;-81
2022/12/09 10:05:55;;;;;;;5.55;3.52;;;;;;;0.49;100.00;100588.66;1820961;77;28895;-89
2022/12/09 10:08:57;;;;;;;10.58;5.30;;;;;;;0.50;100.00;100580.91;1797478;78;21155;-88
2022/12/09 10:12:20;;;;;;;14.25;6.00;;;;;;;0.58;100.00;100582.02;1806418;78;20990;-89
2022/12/09 10:15:12;;;;;;;14.90;7.10;;;;;;;0.66;100.00;100572.37;1794337;78;21002;-90
2022/12/09 10:18:20;;;;;;;11.55;6.30;;;;;;;0.76;100.00;100567.90;1790392;78;21085;-88
2022/12/09 10:21:18;;;;;;;13.08;6.00;;;;;;;0.91;100.00;100574.37;1765435;79;20965;-89
2022/12/09 10:24:31;;;;;;;6.33;4.12;;;;;;;1.15;100.00;100578.21;1797307;78;21058;-89
2022/12/09 10:27:36;;;;;;;10.53;4.28;;;;;;;1.22;100.00;100580.36;1808653;78;21026;-89
2022/12/09 10:30:21;;;;;;;8.83;5.35;;;;;;;1.19;100.00;100585.65;1803005;78;20961;-90
2022/12/09 10:33:05;;;;;;;7.85;4.78;;;;;;;1.26;100.00;100605.29;1798892;78;21857;-89
2022/12/09 10:35:50;;;;;;;8.60;3.85;;;;;;;1.35;100.00;100611.77;1801428;78;21072;-89
2022/12/09 10:38:37;;;;;;;6.28;3.75;;;;;;;1.39;100.00;100611.66;1806486;77;21013;-89
2022/12/09 10:44:47;;;;;;;;;;;;;;;1.50;100.00;100601.00;1709754;81;21512;-91
2022/12/09 10:47:31;;;;;;;24.95;11.22;;;;;;;1.49;100.00;100588.59;1717074;81;20162;-89
2022/12/09 10:50:33;;;;;;;19.05;9.28;;;;;;;1.43;100.00;100589.44;1738302;80;21937;-91
2022/12/09 10:53:18;;;;;;;7.00;4.57;;;;;;;1.39;100.00;100586.08;1780794;78;20991;-92
2022/12/09 10:56:03;;;;;;;7.70;5.03;;;;;;;1.39;100.00;100590.93;1696286;81;21336;-92
2022/12/09 10:58:48;;;;;;;6.53;3.77;;;;;;;1.39;100.00;100592.28;1750142;81;21022;-93
2022/12/09 11:01:49;;;;;;;7.85;3.87;;;;;;;1.39;100.00;100586.89;1752145;81;20987;-94
2022/12/09 11:04:40;;;;;;;8.25;3.92;;;;;;;1.37;100.00;100580.89;1729104;80;21007;-92
2022/12/09 11:07:25;;;;;;;8.15;3.83;;;;;;;1.36;100.00;100581.95;1785410;79;21891;-93
2022/12/09 11:10:21;;;;;;;8.43;3.75;;;;;;;1.34;100.00;100581.86;1722082;81;21034;-92
2022/12/09 11:13:07;;;;;;;6.90;3.12;;;;;;;1.28;100.00;100581.64;1789879;79;21045;-92
2022/12/09 11:15:59;;;;;;;5.05;2.52;;;;;;;1.26;100.00;100581.06;1725030;82;21059;-93
2022/12/09 11:18:44;;;;;;;6.53;3.27;;;;;;;1.27;100.00;100577.84;1785335;79;21061;-91
2022/12/09 11:21:33;;;;;;;4.85;3.12;;;;;;;1.28;100.00;100581.64;1770006;79;21007;-94
2022/12/09 11:24:21;;;;;;;13.48;6.60;;;;;;;1.31;100.00;100575.53;1771877;79;21674;-93
2022/12/09 11:27:30;;;;;;;14.05;6.60;;;;;;;1.31;100.00;100574.19;1803088;79;21042;-90
2022/12/09 11:30:20;;;;;;;15.45;7.50;;;;;;;1.36;100.00;100560.90;1726421;81;21012;-88
2022/12/09 11:33:24;;;;;;;22.32;6.67;;;;;;;1.33;100.00;100559.99;1802236;79;20986;-89
2022/12/09 11:36:13;;;;;;;9.03;4.70;;;;;;;1.31;100.00;100547.27;1737037;81;21000;-89
2022/12/09 11:39:16;;;;;;;11.43;5.53;;;;;;;1.29;100.00;100544.28;1777680;79;21467;-87
2022/12/09 11:42:13;;;;;;;10.88;5.10;;;;;;;1.31;100.00;100540.53;1786129;79;21034;-89
2022/12/09 11:45:08;;;;;;;10.88;4.72;;;;;;;1.34;100.00;100537.44;1742556;80;21052;-90
2022/12/09 11:47:55;;;;;;;8.08;5.08;;;;;;;1.36;100.00;100527.25;1774350;79;20988;-88
2022/12/09 11:50:41;;;;;;;7.45;4.25;;;;;;;1.36;100.00;100528.09;1660110;83;21051;-87
2022/12/09 11:53:33;;;;;;;3.62;2.80;;;;;;;1.39;100.00;100530.34;1723226;82;21102;-87
2022/12/09 11:56:21;;;;;;;8.70;4.45;;;;;;;1.40;100.00;100531.16;1727291;82;21385;-89
2022/12/09 11:59:20;;;;;;;6.50;4.15;;;;;;;1.41;100.00;100524.73;1712017;82;21040;-88
2022/12/09 12:02:35;;;;;;;10.23;5.55;;;;;;;1.46;100.00;100531.66;1805573;79;20982;-92
2022/12/09 12:05:24;;;;;;;11.53;5.45;;;;;;;1.46;100.00;100533.00;1689562;82;20987;-90
2022/12/09 12:08:34;;;;;;;5.65;2.65;;;;;;;1.43;100.00;100525.34;1774521;80;21062;-89
2022/12/09 12:11:29;;;;;;;6.67;3.47;;;;;;;1.39;100.00;100518.75;1729027;81;21074;-92
2022/12/09 12:14:21;;;;;;;11.35;6.05;;;;;;;1.34;100.00;100510.50;1761258;81;20959;-91
2022/12/09 12:17:28;;;;;;;12.35;7.00;;;;;;;1.29;100.00;100502.55;1728414;82;20999;-92
2022/12/09 12:20:13;;;;;;;8.13;3.80;;;;;;;1.25;100.00;100502.67;1734206;82;21019;-91
2022/12/09 12:23:41;;;;;;;10.95;5.58;;;;;;;1.21;100.00;100494.73;1721711;82;21061;-91
2022/12/09 12:26:28;;;;;;;10.88;5.20;;;;;;;1.19;100.00;100490.09;1777907;79;21350;-92
2022/12/09 12:29:30;;;;;;;6.00;3.70;;;;;;;1.18;100.00;100496.50;1735602;81;21011;-90
2022/12/09 12:33:02;;;;;;;7.83;3.37;;;;;;;1.17;100.00;100498.08;1736168;82;21045;-92
2022/12/09 12:36:33;;;;;;;8.88;3.65;;;;;;;1.17;100.00;100496.73;1777349;78;21541;-89
2022/12/09 12:39:44;;;;;;;6.65;3.35;;;;;;;1.17;100.00;100498.89;1779228;79;20998;-91
2022/12/09 12:42:40;;;;;;;3.92;2.33;;;;;;;1.16;100.00;100515.25;1787587;79;20978;-88
2022/12/09 12:48:42;;;;;;;;;;;;;;;1.16;100.00;100499.92;1802493;79;20998;-87
2022/12/09 12:51:55;;;;;;;6.17;3.75;;;;;;;1.13;100.00;100494.98;1790174;79;20197;-90
2022/12/09 12:54:51;;;;;;;31.33;9.28;;;;;;;1.11;100.00;100500.27;1773500;79;21014;-89
2022/12/09 12:57:56;;;;;;;57.45;16.85;;;;;;;1.08;100.00;100490.77;1781808;79;21038;-88
2022/12/09 16:08:58;;;;;;;13.65;6.03;;;;;;;0.53;100.00;100455.45;1816629;77;29377;-81
2022/12/09 16:11:47;;;;;;;17.73;9.65;;;;;;;0.50;100.00;100459.92;1786862;80;21036;-85
2022/12/09 16:14:42;;;;;;;24.82;11.10;;;;;;;0.56;100.00;100457.18;1787142;80;21511;-83
2022/12/09 16:17:33;;;;;;;25.20;11.38;;;;;;;0.59;100.00;100454.58;1788322;80;21001;-84
2022/12/09 16:20:33;;;;;;;17.07;8.28;;;;;;;0.60;100.00;100458.41;1787504;80;20978;-84
2022/12/09 16:23:20;;;;;;;11.93;6.50;;;;;;;0.64;100.00;100466.86;1741029;80;21002;-84
2022/12/09 16:26:05;;;;;;;27.05;11.22;;;;;;;0.63;100.00;100471.95;1708746;83;21506;-84
2022/12/09 16:28:55;;;;;;;25.48;12.85;;;;;;;0.68;100.00;100482.89;1762997;80;21038;-84
2022/12/09 16:31:40;;;;;;;22.42;11.43;;;;;;;0.67;100.00;100487.98;1770076;79;21023;-84
2022/12/09 16:34:24;;;;;;;34.43;15.10;;;;;;;0.68;100.00;100488.80;1750019;80;21062;-84
2022/12/09 16:37:28;;;;;;;21.55;10.13;;;;;;;0.72;100.00;100473.37;1738849;80;21019;-84
2022/12/09 16:40:33;;;;;;;17.27;6.87;;;;;;;0.79;100.00;100474.66;1755380;80;21042;-84
2022/12/09 16:43:21;;;;;;;9.35;4.78;;;;;;;0.83;100.00;100480.75;1765440;80;20999;-83
2022/12/09 16:46:17;;;;;;;11.50;5.42;;;;;;;0.85;100.00;100477.33;1715749;81;21079;-82
2022/12/09 16:49:03;;;;;;;22.60;8.35;;;;;;;0.86;100.00;100460.13;1720093;81;21011;-82
2022/12/09 16:51:48;;;;;;;9.58;5.08;;;;;;;0.90;100.00;100451.13;1751531;80;20983;-83
2022/12/09 16:54:32;;;;;;;10.45;4.58;;;;;;;0.86;100.00;100464.70;1743491;81;20967;-84
2022/12/09 16:57:19;;;;;;;15.32;6.50;;;;;;;0.85;100.00;100463.87;1771622;79;21018;-83
2022/12/09 17:00:05;;;;;;;12.13;6.28;;;;;;;0.84;100.00;100473.50;1766255;79;21639;-84
2022/12/09 17:02:54;;;;;;;9.43;5.33;;;;;;;0.86;100.00;100486.22;1763167;79;20955;-83
2022/12/09 17:05:40;;;;;;;10.72;4.90;;;;;;;0.85;100.00;100486.74;1707785;84;21033;-83
2022/12/09 17:08:25;;;;;;;10.38;4.85;;;;;;;0.82;100.00;100480.45;1756236;79;21032;-82
2022/12/09 17:11:10;;;;;;;7.50;4.92;;;;;;;0.82;100.00;100485.84;1772267;79;21042;-83
2022/12/09 17:13:54;;;;;;;18.05;9.25;;;;;;;0.80;100.00;100493.29;1769401;79;21014;-82
2022/12/09 17:16:39;;;;;;;86.42;39.73;;;;;;;0.76;100.00;100494.75;1766751;80;21458;-82
2022/12/09 17:19:23;;;;;;;34.53;18.00;;;;;;;0.72;100.00;100485.47;1770285;79;21039;-83
2022/12/09 17:22:09;;;;;;;23.52;12.73;;;;;;;0.69;100.00;100491.25;1765870;79;21074;-83
2022/12/09 17:24:53;;;;;;;17.90;8.25;;;;;;;0.69;100.00;100485.88;1761075;79;21054;-83
2022/12/09 17:27:37;;;;;;;19.50;8.08;;;;;;;0.70;100.00;100490.76;1762962;81;20994;-83
2022/12/09 17:30:22;;;;;;;13.50;6.28;;;;;;;0.69;100.00;100492.59;1751059;79;21485;-83
2022/12/09 17:33:06;;;;;;;13.78;6.35;;;;;;;0.70;100.00;100490.23;1758847;80;21053;-87
2022/12/09 17:35:51;;;;;;;16.07;6.97;;;;;;;0.72;100.00;100490.00;1700458;83;21030;-83
2022/12/09 17:38:36;;;;;;;18.23;8.85;;;;;;;0.73;100.00;100485.77;1702627;82;20992;-83
2022/12/09 17:41:22;;;;;;;23.10;8.95;;;;;;;0.72;100.00;100486.81;1737393;80;21019;-83
2022/12/09 17:44:07;;;;;;;13.10;7.30;;;;;;;0.72;100.00;100488.16;1754672;81;20954;-83
2022/12/09 17:46:52;;;;;;;20.43;6.65;;;;;;;0.74;100.00;100496.84;1744574;81;21023;-83
2022/12/09 17:49:37;;;;;;;13.53;6.10;;;;;;;0.77;100.00;100496.41;1766550;81;21062;-84
2022/12/09 17:52:23;;;;;;;15.03;7.08;;;;;;;0.77;100.00;100499.62;1761599;80;21208;-83
2022/12/09 17:55:11;;;;;;;12.15;6.33;;;;;;;0.75;100.00;100501.70;1726261;82;21359;-84
2022/12/09 17:57:56;;;;;;;20.50;7.08;;;;;;;0.76;100.00;100500.12;1719983;83;21023;-83
2022/12/09 18:00:41;;;;;;;14.00;6.17;;;;;;;0.80;100.00;100510.78;1723699;82;21062;-83
2022/12/09 18:03:25;;;;;;;12.33;5.28;;;;;;;0.78;100.00;100508.81;1722791;83;21473;-84
2022/12/09 18:06:09;;;;;;;9.33;4.97;;;;;;;0.79;100.00;100499.72;1722031;82;21399;-83
2022/12/09 18:08:54;;;;;;;13.50;5.37;;;;;;;0.82;100.00;100495.78;1710654;82;21026;-84
2022/12/09 18:11:39;;;;;;;13.95;6.20;;;;;;;0.84;100.00;100485.11;1725135;82;21489;-83
2022/12/09 18:14:25;;;;;;;11.80;4.83;;;;;;;0.86;100.00;100499.67;1760021;80;21060;-84
2022/12/09 18:17:09;;;;;;;12.55;5.85;;;;;;;0.85;100.00;100500.72;1771435;80;20986;-84
2022/12/09 18:19:54;;;;;;;11.25;5.30;;;;;;;0.84;100.00;100497.70;1763592;80;21029;-83
2022/12/09 18:22:39;;;;;;;12.55;5.30;;;;;;;0.86;100.00;100495.63;1748919;80;20957;-83
2022/12/09 18:25:23;;;;;;;9.33;4.58;;;;;;;0.90;100.00;100500.09;1769388;80;21573;-83
2022/12/09 18:28:08;;;;;;;11.40;4.35;;;;;;;0.89;100.00;100503.80;1762324;80;21487;-83
2022/12/09 18:30:53;;;;;;;9.85;4.33;;;;;;;0.88;100.00;100507.54;1786635;79;21395;-83
2022/12/09 18:33:40;;;;;;;10.93;4.80;;;;;;;0.89;100.00;100507.83;1769193;80;21461;-86
2022/12/09 18:36:26;;;;;;;6.25;4.22;;;;;;;0.89;100.00;100500.61;1771497;80;21040;-83
2022/12/09 18:39:11;;;;;;;12.37;4.40;;;;;;;0.92;100.00;100496.14;1739523;80;21013;-83
2022/12/09 18:41:55;;;;;;;10.45;3.72;;;;;;;0.93;100.00;100498.30;1745374;79;21030;-83
2022/12/09 18:44:40;;;;;;;8.25;3.98;;;;;;;0.88;100.00;100510.23;1775971;79;21072;-84
2022/12/09 18:47:24;;;;;;;9.48;3.92;;;;;;;0.84;100.00;100507.97;1741214;81;21001;-84
2022/12/09 18:50:09;;;;;;;6.22;3.55;;;;;;;0.89;100.00;100513.21;1754043;79;21010;-84
2022/12/09 18:52:53;;;;;;;9.78;4.00;;;;;;;0.90;100.00;100510.32;1766531;79;20994;-84
2022/12/09 18:55:42;;;;;;;7.25;4.00;;;;;;;0.92;100.00;100519.01;1750386;79;21034;-83
2022/12/09 18:58:28;;;;;;;9.20;4.58;;;;;;;0.92;100.00;100516.84;1757596;79;21088;-82
2022/12/09 22:07:02;;;;;;;13.58;5.55;;;;;;;-0.06;100.00;100489.50;1842160;76;28977;-83
2022/12/09 22:09:48;;;;;;;23.12;7.72;;;;;;;-0.07;100.00;100500.77;1806601;77;20990;-79
2022/12/09 22:12:34;;;;;;;19.10;9.35;;;;;;;0.06;100.00;100499.11;1759421;78;21019;-79
2022/12/09 22:15:18;;;;;;;25.48;9.90;;;;;;;0.15;100.00;100500.02;1746367;81;21019;-79
2022/12/09 22:18:03;;;;;;;30.88;11.20;;;;;;;0.24;100.00;100507.33;1765890;79;20972;-79
2022/12/09 22:20:48;;;;;;;26.85;9.90;;;;;;;0.35;100.00;100509.38;1724434;81;20971;-79
2022/12/09 22:23:33;;;;;;;24.50;9.25;;;;;;;0.39;100.00;100515.15;1769289;79;21034;-79
2022/12/09 22:26:19;;;;;;;20.75;7.80;;;;;;;0.47;100.00;100508.72;1773677;79;20963;-79
2022/12/09 22:29:04;;;;;;;18.57;7.20;;;;;;;0.54;100.00;100514.90;1764969;79;21792;-79
2022/12/09 22:31:50;;;;;;;15.23;6.10;;;;;;;0.58;100.00;100508.07;1768369;79;21022;-79
2022/12/09 22:34:34;;;;;;;12.00;5.90;;;;;;;0.61;100.00;100509.80;1756715;79;20996;-79
2022/12/09 22:37:18;;;;;;;13.03;5.90;;;;;;;0.70;100.00;100507.72;1729408;80;21019;-79
2022/12/09 22:40:04;;;;;;;13.55;5.20;;;;;;;0.75;100.00;100503.87;1766424;80;21099;-79
2022/12/09 22:42:49;;;;;;;10.58;5.35;;;;;;;0.77;100.00;100496.94;1735623;82;20995;-79
2022/12/09 22:45:34;;;;;;;14.05;5.65;;;;;;;0.79;100.00;100478.20;1753773;78;21042;-79
2022/12/09 22:48:19;;;;;;;17.00;6.92;;;;;;;0.81;100.00;100484.17;1765050;79;20986;-79
2022/12/09 22:51:08;;;;;;;15.05;7.15;;;;;;;0.86;100.00;100467.38;1774529;79;21878;-79
2022/12/09 22:53:54;;;;;;;12.10;5.17;;;;;;;0.87;100.00;100482.51;1730945;82;21082;-79
2022/12/09 22:56:41;;;;;;;12.37;5.50;;;;;;;0.85;100.00;100500.20;1770997;79;20970;-79
2022/12/09 22:59:26;;;;;;;13.60;5.40;;;;;;;0.89;100.00;100495.23;1772740;79;21046;-79
2022/12/09 23:02:10;;;;;;;11.40;5.33;;;;;;;0.95;100.00;100485.47;1775133;80;20998;-79
2022/12/09 23:04:55;;;;;;;11.53;4.97;;;;;;;0.96;100.00;100477.69;1771453;79;21047;-79
2022/12/09 23:07:39;;;;;;;8.48;4.35;;;;;;;0.97;100.00;100484.73;1735346;82;21434;-79
2022/12/09 23:10:24;;;;;;;9.18;4.45;;;;;;;0.96;100.00;100489.27;1759685;79;21014;-79
2022/12/09 23:13:09;;;;;;;13.03;4.53;;;;;;;0.99;100.00;100488.01;1769505;79;21022;-79
2022/12/09 23:15:53;;;;;;;9.30;4.60;;;;;;;0.99;100.00;100486.66;1773803;79;21018;-79
2022/12/09 23:18:38;;;;;;;10.80;5.47;;;;;;;0.99;100.00;100486.17;1711450;82;21049;-79
2022/12/09 23:21:29;;;;;;;11.63;4.62;;;;;;;1.00;100.00;100499.09;1720830;82;20987;-79
2022/12/09 23:24:15;;;;;;;13.65;5.33;;;;;;;1.01;100.00;100485.94;1698263;81;21003;-79
2022/12/09 23:26:59;;;;;;;9.43;5.12;;;;;;;1.03;100.00;100500.00;1736315;81;21366;-79
2022/12/09 23:29:44;;;;;;;8.93;4.45;;;;;;;1.01;100.00;100491.31;1719858;81;21011;-79
2022/12/09 23:32:29;;;;;;;8.33;4.28;;;;;;;1.00;100.00;100490.50;1774465;79;21027;-79
2022/12/09 23:35:13;;;;;;;11.28;4.05;;;;;;;1.02;100.00;100492.98;1740962;81;21529;-79
2022/12/09 23:37:58;;;;;;;7.72;4.83;;;;;;;1.03;100.00;100493.28;1778650;79;21014;-79
2022/12/09 23:40:51;;;;;;;8.50;4.08;;;;;;;1.04;100.00;100494.95;1771329;79;21018;-79
2022/12/09 23:43:36;;;;;;;7.83;4.35;;;;;;;1.05;100.00;100488.51;1760952;79;21047;-79
2022/12/09 23:46:24;;;;;;;10.35;4.53;;;;;;;1.13;100.00;100501.70;1769500;80;21444;-79
2022/12/09 23:49:09;;;;;;;11.53;4.78;;;;;;;1.13;100.00;100493.63;1733236;82;21043;-79
2022/12/09 23:51:53;;;;;;;10.40;4.55;;;;;;;1.14;100.00;100500.68;1754915;79;21462;-79
2022/12/09 23:54:38;;;;;;;9.58;4.78;;;;;;;1.12;100.00;100493.34;1767000;80;20990;-79
2022/12/09 23:57:23;;;;;;;12.35;4.70;;;;;;;1.08;100.00;100490.23;1764124;80;21451;-79
